sensor_id;sensor_type;location;lat;lon;timestamp;pressure;altitude;pressure_sealevel;temperature;humidity
7802;BME280;3945;48.952;9.506;2023-04-08T00:02:21;98158.50;;;9.54;90.92
7802;BME280;3945;48.952;9.506;2023-04-08T00:04:47;98160.13;;;9.55;90.84
7802;BME280;3945;48.952;9.506;2023-04-08T00:07:13;98163.81;;;9.54;90.49
7802;BME280;3945;48.952;9.506;2023-04-08T00:09:40;98160.56;;;9.52;90.94
7802;BME280;3945;48.952;9.506;2023-04-08T00:12:06;98171.44;;;9.50;90.70
7802;BME280;3945;48.952;9.506;2023-04-08T00:14:34;98170.03;;;9.48;91.19
7802;BME280;3945;48.952;9.506;2023-04-08T00:17:02;98167.38;;;9.48;90.71
7802;BME280;3945;48.952;9.506;2023-04-08T00:19:28;98173.13;;;9.45;90.92
7802;BME280;3945;48.952;9.506;2023-04-08T00:21:55;98177.50;;;9.39;91.50
7802;BME280;3945;48.952;9.506;2023-04-08T00:24:21;98174.84;;;9.39;91.88
7802;BME280;3945;48.952;9.506;2023-04-08T00:26:47;98176.09;;;9.36;91.67
7802;BME280;3945;48.952;9.506;2023-04-08T00:29:14;98179.00;;;9.35;92.26
7802;BME280;3945;48.952;9.506;2023-04-08T00:31:42;98177.16;;;9.35;92.36
7802;BME280;3945;48.952;9.506;2023-04-08T00:34:08;98174.50;;;9.35;92.32
7802;BME280;3945;48.952;9.506;2023-04-08T00:36:34;98168.38;;;9.35;92.81
7802;BME280;3945;48.952;9.506;2023-04-08T00:39:01;98170.47;;;9.33;92.62
7802;BME280;3945;48.952;9.506;2023-04-08T00:41:28;98169.41;;;9.34;93.01
7802;BME280;3945;48.952;9.506;2023-04-08T00:43:54;98174.72;;;9.34;93.21
7802;BME280;3945;48.952;9.506;2023-04-08T00:46:21;98171.25;;;9.33;93.20
7802;BME280;3945;48.952;9.506;2023-04-08T00:48:48;98168.84;;;9.32;93.06
7802;BME280;3945;48.952;9.506;2023-04-08T00:51:15;98169.31;;;9.29;93.16
7802;BME280;3945;48.952;9.506;2023-04-08T00:53:41;98171.59;;;9.25;92.93
7802;BME280;3945;48.952;9.506;2023-04-08T00:56:08;98171.81;;;9.24;93.33
7802;BME280;3945;48.952;9.506;2023-04-08T00:58:34;98172.63;;;9.24;93.42
7802;BME280;3945;48.952;9.506;2023-04-08T01:01:02;98176.31;;;9.23;93.25
7802;BME280;3945;48.952;9.506;2023-04-08T01:03:33;98178.97;;;9.23;93.15
7802;BME280;3945;48.952;9.506;2023-04-08T01:06:06;98177.59;;;9.21;92.72
7802;BME280;3945;48.952;9.506;2023-04-08T01:08:34;98175.38;;;9.18;93.07
7802;BME280;3945;48.952;9.506;2023-04-08T01:11:03;98178.25;;;9.16;93.23
7802;BME280;3945;48.952;9.506;2023-04-08T01:13:33;98173.53;;;9.18;93.21
7802;BME280;3945;48.952;9.506;2023-04-08T01:16:02;98174.94;;;9.21;92.88
7802;BME280;3945;48.952;9.506;2023-04-08T01:18:29;98170.06;;;9.18;93.62
7802;BME280;3945;48.952;9.506;2023-04-08T01:20:55;98172.72;;;9.18;93.38
7802;BME280;3945;48.952;9.506;2023-04-08T01:23:27;98179.06;;;9.17;93.85
7802;BME280;3945;48.952;9.506;2023-04-08T01:25:57;98178.03;;;9.18;93.54
7802;BME280;3945;48.952;9.506;2023-04-08T01:28:24;98175.59;;;9.16;93.73
7802;BME280;3945;48.952;9.506;2023-04-08T01:30:51;98180.91;;;9.16;93.83
7802;BME280;3945;48.952;9.506;2023-04-08T01:33:20;98181.69;;;9.17;93.90
7802;BME280;3945;48.952;9.506;2023-04-08T01:35:47;98182.31;;;9.19;93.66
7802;BME280;3945;48.952;9.506;2023-04-08T01:38:14;98176.19;;;9.18;93.83
7802;BME280;3945;48.952;9.506;2023-04-08T01:40:42;98186.78;;;9.18;94.34
7802;BME280;3945;48.952;9.506;2023-04-08T01:43:11;98181.47;;;9.18;94.01
7802;BME280;3945;48.952;9.506;2023-04-08T01:45:38;98190.25;;;9.19;94.05
7802;BME280;3945;48.952;9.506;2023-04-08T01:48:05;98179.66;;;9.19;94.41
7802;BME280;3945;48.952;9.506;2023-04-08T01:50:32;98180.91;;;9.16;94.13
7802;BME280;3945;48.952;9.506;2023-04-08T01:52:59;98174.56;;;9.17;94.00
7802;BME280;3945;48.952;9.506;2023-04-08T01:55:26;98172.72;;;9.18;94.36
7802;BME280;3945;48.952;9.506;2023-04-08T01:57:53;98178.84;;;9.18;94.17
7802;BME280;3945;48.952;9.506;2023-04-08T02:00:23;98177.22;;;9.17;93.92
7802;BME280;3945;48.952;9.506;2023-04-08T02:02:50;98174.34;;;9.19;94.48
7802;BME280;3945;48.952;9.506;2023-04-08T02:05:17;98171.56;;;9.14;94.27
7802;BME280;3945;48.952;9.506;2023-04-08T02:07:44;98173.84;;;9.10;94.32
7802;BME280;3945;48.952;9.506;2023-04-08T02:10:12;98175.69;;;9.10;93.99
7802;BME280;3945;48.952;9.506;2023-04-08T02:12:38;98173.25;;;9.08;93.58
7802;BME280;3945;48.952;9.506;2023-04-08T02:15:04;98175.13;;;9.08;93.79
7802;BME280;3945;48.952;9.506;2023-04-08T02:17:35;98178.00;;;9.06;92.95
7802;BME280;3945;48.952;9.506;2023-04-08T02:20:05;98173.25;;;9.08;92.97
7802;BME280;3945;48.952;9.506;2023-04-08T02:22:36;98175.13;;;9.08;92.50
7802;BME280;3945;48.952;9.506;2023-04-08T02:25:04;98186.16;;;9.05;93.13
7802;BME280;3945;48.952;9.506;2023-04-08T02:27:33;98177.59;;;9.02;92.70
7802;BME280;3945;48.952;9.506;2023-04-08T02:30:01;98184.75;;;9.02;92.94
7802;BME280;3945;48.952;9.506;2023-04-08T02:32:28;98177.00;;;9.00;92.46
7802;BME280;3945;48.952;9.506;2023-04-08T02:34:57;98183.59;;;8.98;92.61
7802;BME280;3945;48.952;9.506;2023-04-08T02:37:24;98184.41;;;8.98;92.64
7802;BME280;3945;48.952;9.506;2023-04-08T02:39:51;98177.47;;;8.97;92.69
7802;BME280;3945;48.952;9.506;2023-04-08T02:42:17;98187.50;;;8.95;92.40
7802;BME280;3945;48.952;9.506;2023-04-08T02:44:43;98183.47;;;8.93;92.22
7802;BME280;3945;48.952;9.506;2023-04-08T02:47:10;98184.25;;;8.93;92.44
7802;BME280;3945;48.952;9.506;2023-04-08T02:49:36;98186.13;;;8.93;91.20
7802;BME280;3945;48.952;9.506;2023-04-08T02:52:04;98191.06;;;8.89;91.80
7802;BME280;3945;48.952;9.506;2023-04-08T02:54:30;98185.97;;;8.88;92.00
7802;BME280;3945;48.952;9.506;2023-04-08T02:56:56;98188.84;;;8.86;91.53
7802;BME280;3945;48.952;9.506;2023-04-08T02:59:23;98186.44;;;8.85;91.66
7802;BME280;3945;48.952;9.506;2023-04-08T03:01:49;98190.91;;;8.84;91.66
7802;BME280;3945;48.952;9.506;2023-04-08T03:04:15;98187.66;;;8.82;91.94
7802;BME280;3945;48.952;9.506;2023-04-08T03:06:42;98186.63;;;8.83;91.51
7802;BME280;3945;48.952;9.506;2023-04-08T03:09:09;98189.28;;;8.83;91.19
7802;BME280;3945;48.952;9.506;2023-04-08T03:11:36;98195.41;;;8.84;90.67
7802;BME280;3945;48.952;9.506;2023-04-08T03:14:02;98189.72;;;8.80;89.57
7802;BME280;3945;48.952;9.506;2023-04-08T03:16:28;98192.84;;;8.77;89.85
7802;BME280;3945;48.952;9.506;2023-04-08T03:18:55;98190.63;;;8.74;89.85
7802;BME280;3945;48.952;9.506;2023-04-08T03:21:21;98188.44;;;8.71;89.53
7802;BME280;3945;48.952;9.506;2023-04-08T03:23:47;98189.06;;;8.67;89.60
7802;BME280;3945;48.952;9.506;2023-04-08T03:26:15;98179.34;;;8.60;90.07
7802;BME280;3945;48.952;9.506;2023-04-08T03:28:41;98186.97;;;8.57;90.49
7802;BME280;3945;48.952;9.506;2023-04-08T03:31:07;98189.44;;;8.52;91.36
7802;BME280;3945;48.952;9.506;2023-04-08T03:33:34;98190.72;;;8.49;91.34
7802;BME280;3945;48.952;9.506;2023-04-08T03:36:00;98180.53;;;8.46;90.86
7802;BME280;3945;48.952;9.506;2023-04-08T03:38:26;98185.25;;;8.44;90.49
7802;BME280;3945;48.952;9.506;2023-04-08T03:40:53;98178.16;;;8.38;91.20
7802;BME280;3945;48.952;9.506;2023-04-08T03:43:20;98182.72;;;8.31;91.49
7802;BME280;3945;48.952;9.506;2023-04-08T03:45:47;98179.31;;;8.24;91.30
7802;BME280;3945;48.952;9.506;2023-04-08T03:48:13;98179.38;;;8.17;91.82
7802;BME280;3945;48.952;9.506;2023-04-08T03:50:39;98188.81;;;8.13;91.78
7802;BME280;3945;48.952;9.506;2023-04-08T03:53:06;98188.63;;;8.08;91.99
7802;BME280;3945;48.952;9.506;2023-04-08T03:55:35;98182.16;;;8.04;91.95
7802;BME280;3945;48.952;9.506;2023-04-08T03:58:01;98188.09;;;8.00;92.43
7802;BME280;3945;48.952;9.506;2023-04-08T04:00:29;98191.41;;;7.95;92.35
7802;BME280;3945;48.952;9.506;2023-04-08T04:02:55;98192.88;;;7.91;92.63
7802;BME280;3945;48.952;9.506;2023-04-08T04:05:21;98184.94;;;7.91;92.66
7802;BME280;3945;48.952;9.506;2023-04-08T04:07:48;98186.56;;;7.92;92.70
7802;BME280;3945;48.952;9.506;2023-04-08T04:10:14;98182.28;;;7.91;92.42
7802;BME280;3945;48.952;9.506;2023-04-08T04:12:40;98188.81;;;7.89;92.37
7802;BME280;3945;48.952;9.506;2023-04-08T04:15:09;98187.19;;;7.88;92.47
7802;BME280;3945;48.952;9.506;2023-04-08T04:17:36;98185.81;;;7.85;92.19
7802;BME280;3945;48.952;9.506;2023-04-08T04:20:03;98196.59;;;7.83;91.99
7802;BME280;3945;48.952;9.506;2023-04-08T04:22:30;98198.25;;;7.84;92.06
7802;BME280;3945;48.952;9.506;2023-04-08T04:24:56;98202.72;;;7.84;91.87
7802;BME280;3945;48.952;9.506;2023-04-08T04:27:22;98202.94;;;7.82;92.46
7802;BME280;3945;48.952;9.506;2023-04-08T04:29:49;98198.66;;;7.81;92.47
7802;BME280;3945;48.952;9.506;2023-04-08T04:32:15;98211.09;;;7.81;92.10
7802;BME280;3945;48.952;9.506;2023-04-08T04:34:44;98213.53;;;7.82;92.07
7802;BME280;3945;48.952;9.506;2023-04-08T04:37:11;98211.69;;;7.83;93.07
7802;BME280;3945;48.952;9.506;2023-04-08T04:39:37;98215.97;;;7.84;92.43
7802;BME280;3945;48.952;9.506;2023-04-08T04:42:04;98215.16;;;7.83;92.79
7802;BME280;3945;48.952;9.506;2023-04-08T04:44:30;98218.16;;;7.87;92.94
7802;BME280;3945;48.952;9.506;2023-04-08T04:46:57;98220.25;;;7.85;92.88
7802;BME280;3945;48.952;9.506;2023-04-08T04:49:23;98221.41;;;7.89;92.77
7802;BME280;3945;48.952;9.506;2023-04-08T04:51:51;98225.50;;;7.92;93.16
7802;BME280;3945;48.952;9.506;2023-04-08T04:54:17;98226.31;;;7.92;93.76
7802;BME280;3945;48.952;9.506;2023-04-08T04:56:43;98221.78;;;7.93;93.21
7802;BME280;3945;48.952;9.506;2023-04-08T04:59:10;98225.25;;;7.93;94.12
7802;BME280;3945;48.952;9.506;2023-04-08T05:01:36;98220.56;;;7.95;93.54
7802;BME280;3945;48.952;9.506;2023-04-08T05:04:05;98222.78;;;7.98;93.12
7802;BME280;3945;48.952;9.506;2023-04-08T05:06:31;98231.31;;;8.00;94.26
7802;BME280;3945;48.952;9.506;2023-04-08T05:08:59;98225.59;;;8.03;94.02
7802;BME280;3945;48.952;9.506;2023-04-08T05:11:25;98230.69;;;8.05;94.27
7802;BME280;3945;48.952;9.506;2023-04-08T05:13:51;98231.69;;;8.04;93.94
7802;BME280;3945;48.952;9.506;2023-04-08T05:16:18;98231.91;;;8.02;93.58
7802;BME280;3945;48.952;9.506;2023-04-08T05:18:44;98233.94;;;8.00;92.67
7802;BME280;3945;48.952;9.506;2023-04-08T05:21:10;98232.13;;;8.01;93.04
7802;BME280;3945;48.952;9.506;2023-04-08T05:23:37;98235.59;;;8.01;92.63
7802;BME280;3945;48.952;9.506;2023-04-08T05:26:06;98235.00;;;7.99;93.65
7802;BME280;3945;48.952;9.506;2023-04-08T05:28:33;98242.97;;;7.99;93.38
7802;BME280;3945;48.952;9.506;2023-04-08T05:31:00;98239.50;;;7.99;93.30
7802;BME280;3945;48.952;9.506;2023-04-08T05:33:26;98245.59;;;7.99;93.37
7802;BME280;3945;48.952;9.506;2023-04-08T05:35:52;98244.78;;;7.99;92.98
7802;BME280;3945;48.952;9.506;2023-04-08T05:38:18;98245.97;;;8.03;94.04
7802;BME280;3945;48.952;9.506;2023-04-08T05:40:45;98249.78;;;8.07;92.88
7802;BME280;3945;48.952;9.506;2023-04-08T05:43:12;98250.63;;;8.07;93.60
7802;BME280;3945;48.952;9.506;2023-04-08T05:45:39;98252.63;;;8.12;93.28
7802;BME280;3945;48.952;9.506;2023-04-08T05:48:05;98248.50;;;8.16;93.49
7802;BME280;3945;48.952;9.506;2023-04-08T05:50:33;98250.75;;;8.19;94.15
7802;BME280;3945;48.952;9.506;2023-04-08T05:52:59;98251.09;;;8.22;93.31
7802;BME280;3945;48.952;9.506;2023-04-08T05:55:26;98255.16;;;8.25;93.24
7802;BME280;3945;48.952;9.506;2023-04-08T05:57:52;98256.16;;;8.31;93.96
7802;BME280;3945;48.952;9.506;2023-04-08T06:00:20;98263.91;;;8.32;94.25
7802;BME280;3945;48.952;9.506;2023-04-08T06:02:47;98256.53;;;8.34;94.53
7802;BME280;3945;48.952;9.506;2023-04-08T06:05:13;98267.50;;;8.38;93.83
7802;BME280;3945;48.952;9.506;2023-04-08T06:07:39;98267.91;;;8.41;93.31
7802;BME280;3945;48.952;9.506;2023-04-08T06:10:06;98280.13;;;8.42;93.49
7802;BME280;3945;48.952;9.506;2023-04-08T06:12:34;98274.84;;;8.42;94.02
7802;BME280;3945;48.952;9.506;2023-04-08T06:15:00;98282.34;;;8.45;93.45
7802;BME280;3945;48.952;9.506;2023-04-08T06:17:28;98274.97;;;8.47;92.75
7802;BME280;3945;48.952;9.506;2023-04-08T06:19:54;98288.59;;;8.51;92.90
7802;BME280;3945;48.952;9.506;2023-04-08T06:22:20;98280.44;;;8.52;92.89
7802;BME280;3945;48.952;9.506;2023-04-08T06:24:47;98283.22;;;8.57;92.58
7802;BME280;3945;48.952;9.506;2023-04-08T06:27:13;98284.22;;;8.63;92.41
7802;BME280;3945;48.952;9.506;2023-04-08T06:29:39;98286.19;;;8.68;91.85
7802;BME280;3945;48.952;9.506;2023-04-08T06:32:06;98283.69;;;8.73;90.58
7802;BME280;3945;48.952;9.506;2023-04-08T06:34:33;98287.16;;;8.73;91.11
7802;BME280;3945;48.952;9.506;2023-04-08T06:37:00;98288.19;;;8.72;91.82
7802;BME280;3945;48.952;9.506;2023-04-08T06:39:26;98300.88;;;8.70;91.32
7802;BME280;3945;48.952;9.506;2023-04-08T06:41:52;98302.50;;;8.71;92.22
7802;BME280;3945;48.952;9.506;2023-04-08T06:44:19;98294.09;;;8.74;92.21
7802;BME280;3945;48.952;9.506;2023-04-08T06:46:45;98296.09;;;8.79;91.93
7802;BME280;3945;48.952;9.506;2023-04-08T06:49:12;98296.09;;;8.79;91.92
7802;BME280;3945;48.952;9.506;2023-04-08T06:51:39;98299.72;;;8.84;92.39
7802;BME280;3945;48.952;9.506;2023-04-08T06:54:06;98300.88;;;8.88;91.61
7802;BME280;3945;48.952;9.506;2023-04-08T06:56:34;98300.47;;;8.91;91.23
7802;BME280;3945;48.952;9.506;2023-04-08T06:59:00;98305.47;;;8.99;91.03
7802;BME280;3945;48.952;9.506;2023-04-08T07:01:27;98303.78;;;9.05;90.56
7802;BME280;3945;48.952;9.506;2023-04-08T07:03:53;98307.59;;;9.09;90.87
7802;BME280;3945;48.952;9.506;2023-04-08T07:06:20;98301.19;;;9.17;90.50
7802;BME280;3945;48.952;9.506;2023-04-08T07:08:48;98305.75;;;9.28;90.09
7802;BME280;3945;48.952;9.506;2023-04-08T07:11:15;98309.16;;;9.35;89.98
7802;BME280;3945;48.952;9.506;2023-04-08T07:13:41;98305.94;;;9.45;89.87
7802;BME280;3945;48.952;9.506;2023-04-08T07:16:07;98305.84;;;9.51;88.71
7802;BME280;3945;48.952;9.506;2023-04-08T07:18:34;98305.63;;;9.53;88.33
7802;BME280;3945;48.952;9.506;2023-04-08T07:21:00;98311.53;;;9.55;87.23
7802;BME280;3945;48.952;9.506;2023-04-08T07:23:27;98319.28;;;9.56;88.03
7802;BME280;3945;48.952;9.506;2023-04-08T07:25:55;98316.16;;;9.59;87.26
7802;BME280;3945;48.952;9.506;2023-04-08T07:28:21;98324.06;;;9.66;86.88
7802;BME280;3945;48.952;9.506;2023-04-08T07:30:47;98320.78;;;9.82;86.60
7802;BME280;3945;48.952;9.506;2023-04-08T07:33:14;98322.09;;;9.91;85.27
7802;BME280;3945;48.952;9.506;2023-04-08T07:35:40;98331.72;;;10.04;86.02
7802;BME280;3945;48.952;9.506;2023-04-08T07:38:07;98322.59;;;10.11;85.71
7802;BME280;3945;48.952;9.506;2023-04-08T07:40:35;98319.97;;;10.23;85.34
7802;BME280;3945;48.952;9.506;2023-04-08T07:43:03;98326.97;;;10.36;84.06
7802;BME280;3945;48.952;9.506;2023-04-08T07:45:29;98328.16;;;10.51;84.08
7802;BME280;3945;48.952;9.506;2023-04-08T07:47:55;98321.78;;;10.64;83.58
7802;BME280;3945;48.952;9.506;2023-04-08T07:50:22;98333.47;;;10.86;82.28
7802;BME280;3945;48.952;9.506;2023-04-08T07:52:48;98333.78;;;11.13;79.40
7802;BME280;3945;48.952;9.506;2023-04-08T07:55:14;98332.22;;;11.41;78.41
7802;BME280;3945;48.952;9.506;2023-04-08T07:57:41;98332.97;;;11.64;77.87
7802;BME280;3945;48.952;9.506;2023-04-08T08:00:09;98335.47;;;11.71;77.55
7802;BME280;3945;48.952;9.506;2023-04-08T08:02:35;98340.94;;;11.76;75.89
7802;BME280;3945;48.952;9.506;2023-04-08T08:05:02;98333.75;;;11.77;76.28
7802;BME280;3945;48.952;9.506;2023-04-08T08:07:28;98333.28;;;11.80;75.19
7802;BME280;3945;48.952;9.506;2023-04-08T08:09:54;98341.59;;;11.83;74.22
7802;BME280;3945;48.952;9.506;2023-04-08T08:12:21;98332.91;;;11.88;72.24
7802;BME280;3945;48.952;9.506;2023-04-08T08:14:47;98339.13;;;11.93;72.13
7802;BME280;3945;48.952;9.506;2023-04-08T08:17:14;98341.00;;;11.93;73.17
7802;BME280;3945;48.952;9.506;2023-04-08T08:19:41;98341.22;;;11.91;71.95
7802;BME280;3945;48.952;9.506;2023-04-08T08:22:07;98341.00;;;11.93;72.61
7802;BME280;3945;48.952;9.506;2023-04-08T08:24:33;98337.59;;;11.97;71.85
7802;BME280;3945;48.952;9.506;2023-04-08T08:27:00;98342.47;;;12.00;71.39
7802;BME280;3945;48.952;9.506;2023-04-08T08:29:28;98344.41;;;12.05;71.82
7802;BME280;3945;48.952;9.506;2023-04-08T08:31:54;98349.69;;;12.17;73.43
7802;BME280;3945;48.952;9.506;2023-04-08T08:34:23;98338.47;;;12.31;73.37
7802;BME280;3945;48.952;9.506;2023-04-08T08:36:49;98345.66;;;12.47;71.52
7802;BME280;3945;48.952;9.506;2023-04-08T08:39:15;98349.56;;;12.57;68.04
7802;BME280;3945;48.952;9.506;2023-04-08T08:41:42;98346.47;;;12.65;66.84
7802;BME280;3945;48.952;9.506;2023-04-08T08:44:08;98353.75;;;12.69;65.97
7802;BME280;3945;48.952;9.506;2023-04-08T08:46:35;98356.53;;;12.74;68.20
7802;BME280;3945;48.952;9.506;2023-04-08T08:49:01;98354.31;;;12.71;61.94
7802;BME280;3945;48.952;9.506;2023-04-08T08:51:29;98362.56;;;12.70;60.79
7802;BME280;3945;48.952;9.506;2023-04-08T08:53:56;98360.56;;;12.77;61.04
7802;BME280;3945;48.952;9.506;2023-04-08T08:56:23;98353.56;;;12.93;62.80
7802;BME280;3945;48.952;9.506;2023-04-08T08:58:49;98360.31;;;12.95;58.58
7802;BME280;3945;48.952;9.506;2023-04-08T09:01:28;98367.09;;;12.86;58.53
7802;BME280;3945;48.952;9.506;2023-04-08T09:04:05;98367.91;;;12.86;58.28
7802;BME280;3945;48.952;9.506;2023-04-08T09:06:33;98368.16;;;12.85;59.59
7802;BME280;3945;48.952;9.506;2023-04-08T09:08:59;98371.63;;;12.85;59.48
7802;BME280;3945;48.952;9.506;2023-04-08T09:11:26;98365.00;;;12.88;59.78
7802;BME280;3945;48.952;9.506;2023-04-08T09:13:53;98364.25;;;12.93;58.72
7802;BME280;3945;48.952;9.506;2023-04-08T09:16:21;98370.81;;;13.02;58.34
7802;BME280;3945;48.952;9.506;2023-04-08T09:18:48;98372.25;;;13.09;54.69
7802;BME280;3945;48.952;9.506;2023-04-08T09:21:14;98371.44;;;13.25;55.16
7802;BME280;3945;48.952;9.506;2023-04-08T09:23:43;98375.75;;;13.48;53.27
7802;BME280;3945;48.952;9.506;2023-04-08T09:26:10;98375.88;;;13.58;50.90
7802;BME280;3945;48.952;9.506;2023-04-08T09:28:37;98377.75;;;13.58;51.93
7802;BME280;3945;48.952;9.506;2023-04-08T09:31:12;98377.13;;;13.51;49.76
7802;BME280;3945;48.952;9.506;2023-04-08T09:33:43;98378.00;;;13.56;50.88
7802;BME280;3945;48.952;9.506;2023-04-08T09:36:09;98382.34;;;13.62;49.93
7802;BME280;3945;48.952;9.506;2023-04-08T09:38:35;98384.28;;;13.67;51.63
7802;BME280;3945;48.952;9.506;2023-04-08T09:41:04;98378.00;;;13.56;50.52
7802;BME280;3945;48.952;9.506;2023-04-08T09:43:32;98382.66;;;13.44;50.01
7802;BME280;3945;48.952;9.506;2023-04-08T09:45:59;98380.53;;;13.24;49.92
7802;BME280;3945;48.952;9.506;2023-04-08T09:48:28;98383.28;;;12.96;51.46
7802;BME280;3945;48.952;9.506;2023-04-08T09:50:58;98378.09;;;12.39;50.07
7802;BME280;3945;48.952;9.506;2023-04-08T09:53:25;98379.56;;;12.02;50.29
7802;BME280;3945;48.952;9.506;2023-04-08T09:55:54;98381.75;;;11.77;52.17
7802;BME280;3945;48.952;9.506;2023-04-08T09:58:24;98388.22;;;11.69;53.46
7802;BME280;3945;48.952;9.506;2023-04-08T10:00:53;98380.94;;;11.64;54.78
7802;BME280;3945;48.952;9.506;2023-04-08T10:03:23;98376.88;;;11.62;55.96
7802;BME280;3945;48.952;9.506;2023-04-08T10:05:52;98386.59;;;11.68;55.27
7802;BME280;3945;48.952;9.506;2023-04-08T10:08:18;98381.63;;;11.60;55.88
7802;BME280;3945;48.952;9.506;2023-04-08T10:10:45;98382.22;;;11.62;55.56
7802;BME280;3945;48.952;9.506;2023-04-08T10:13:11;98382.13;;;11.57;55.24
7802;BME280;3945;48.952;9.506;2023-04-08T10:15:39;98386.19;;;11.59;56.53
7802;BME280;3945;48.952;9.506;2023-04-08T10:20:52;98379.59;;;11.50;55.59
7802;BME280;3945;48.952;9.506;2023-04-08T10:23:18;98387.50;;;11.45;55.88
7802;BME280;3945;48.952;9.506;2023-04-08T10:26:06;98388.53;;;11.44;56.04
7802;BME280;3945;48.952;9.506;2023-04-08T10:28:52;98392.56;;;11.47;55.74
7802;BME280;3945;48.952;9.506;2023-04-08T10:31:20;98385.06;;;11.32;54.68
7802;BME280;3945;48.952;9.506;2023-04-08T10:33:47;98394.09;;;11.19;55.24
7802;BME280;3945;48.952;9.506;2023-04-08T10:36:13;98395.03;;;11.13;55.28
7802;BME280;3945;48.952;9.506;2023-04-08T10:38:40;98390.88;;;11.06;55.49
7802;BME280;3945;48.952;9.506;2023-04-08T10:41:10;98388.66;;;11.03;55.52
7802;BME280;3945;48.952;9.506;2023-04-08T10:43:37;98395.97;;;11.07;56.16
7802;BME280;3945;48.952;9.506;2023-04-08T10:46:04;98395.97;;;11.07;57.58
7802;BME280;3945;48.952;9.506;2023-04-08T10:48:30;98393.31;;;11.07;57.37
7802;BME280;3945;48.952;9.506;2023-04-08T10:50:58;98396.78;;;11.08;56.29
7802;BME280;3945;48.952;9.506;2023-04-08T10:53:25;98398.75;;;11.01;54.77
7802;BME280;3945;48.952;9.506;2023-04-08T10:55:51;98402.91;;;10.96;55.77
7802;BME280;3945;48.952;9.506;2023-04-08T10:58:19;98410.69;;;10.86;56.23
7802;BME280;3945;48.952;9.506;2023-04-08T11:00:46;98412.06;;;10.89;57.62
7802;BME280;3945;48.952;9.506;2023-04-08T11:03:12;98399.31;;;10.91;57.71
7802;BME280;3945;48.952;9.506;2023-04-08T11:05:38;98402.00;;;10.91;57.55
7802;BME280;3945;48.952;9.506;2023-04-08T11:08:05;98405.09;;;10.88;57.00
7802;BME280;3945;48.952;9.506;2023-04-08T11:10:35;98402.31;;;10.83;57.69
7802;BME280;3945;48.952;9.506;2023-04-08T11:13:02;98403.13;;;10.83;57.02
7802;BME280;3945;48.952;9.506;2023-04-08T11:15:32;98400.69;;;10.82;57.93
7802;BME280;3945;48.952;9.506;2023-04-08T11:18:00;98404.63;;;10.68;57.84
7802;BME280;3945;48.952;9.506;2023-04-08T11:20:27;98404.13;;;10.59;57.97
7802;BME280;3945;48.952;9.506;2023-04-08T11:22:53;98403.81;;;10.55;58.52
7802;BME280;3945;48.952;9.506;2023-04-08T11:25:20;98401.94;;;10.56;59.97
7802;BME280;3945;48.952;9.506;2023-04-08T11:27:46;98397.56;;;10.62;59.71
7802;BME280;3945;48.952;9.506;2023-04-08T11:30:14;98403.69;;;10.62;59.23
7802;BME280;3945;48.952;9.506;2023-04-08T11:32:41;98396.97;;;10.60;59.51
7802;BME280;3945;48.952;9.506;2023-04-08T11:35:08;98407.28;;;10.56;59.81
7802;BME280;3945;48.952;9.506;2023-04-08T11:37:38;98404.25;;;10.52;59.92
7802;BME280;3945;48.952;9.506;2023-04-08T11:40:08;98401.94;;;10.56;60.98
7802;BME280;3945;48.952;9.506;2023-04-08T11:42:35;98401.63;;;10.64;61.37
7802;BME280;3945;48.952;9.506;2023-04-08T11:45:01;98400.69;;;10.70;60.98
7802;BME280;3945;48.952;9.506;2023-04-08T11:47:34;98397.94;;;10.77;60.51
7802;BME280;3945;48.952;9.506;2023-04-08T11:50:02;98389.59;;;10.85;61.23
7802;BME280;3945;48.952;9.506;2023-04-08T11:55:11;98397.59;;;10.85;60.06
7802;BME280;3945;48.952;9.506;2023-04-08T11:57:38;98395.84;;;10.90;60.56
7802;BME280;3945;48.952;9.506;2023-04-08T12:00:05;98393.66;;;10.99;61.79
7802;BME280;3945;48.952;9.506;2023-04-08T12:02:31;98396.91;;;11.13;61.38
7802;BME280;3945;48.952;9.506;2023-04-08T12:04:58;98389.00;;;11.18;59.99
7802;BME280;3945;48.952;9.506;2023-04-08T12:07:26;98395.16;;;11.30;60.30
7802;BME280;3945;48.952;9.506;2023-04-08T12:09:52;98391.53;;;11.48;59.94
7802;BME280;3945;48.952;9.506;2023-04-08T12:12:19;98392.06;;;11.61;60.34
7802;BME280;3945;48.952;9.506;2023-04-08T12:14:45;98387.88;;;11.77;60.19
7802;BME280;3945;48.952;9.506;2023-04-08T12:17:11;98392.75;;;11.80;59.31
7802;BME280;3945;48.952;9.506;2023-04-08T12:19:37;98394.50;;;11.74;59.42
7802;BME280;3945;48.952;9.506;2023-04-08T12:22:04;98391.59;;;11.76;60.17
7802;BME280;3945;48.952;9.506;2023-04-08T12:24:32;98391.72;;;11.81;59.92
7802;BME280;3945;48.952;9.506;2023-04-08T12:26:58;98384.38;;;11.88;60.78
7802;BME280;3945;48.952;9.506;2023-04-08T12:29:25;98389.81;;;11.93;59.64
7802;BME280;3945;48.952;9.506;2023-04-08T12:31:52;98390.94;;;11.97;58.76
7802;BME280;3945;48.952;9.506;2023-04-08T12:34:18;98389.66;;;12.00;57.84
7802;BME280;3945;48.952;9.506;2023-04-08T12:36:45;98392.47;;;11.93;57.50
7802;BME280;3945;48.952;9.506;2023-04-08T12:39:11;98399.16;;;11.96;58.91
7802;BME280;3945;48.952;9.506;2023-04-08T12:41:39;98397.31;;;11.96;58.38
7802;BME280;3945;48.952;9.506;2023-04-08T12:44:05;98398.25;;;12.02;58.69
7802;BME280;3945;48.952;9.506;2023-04-08T12:46:32;98394.19;;;11.99;57.95
7802;BME280;3945;48.952;9.506;2023-04-08T12:48:58;98398.00;;;12.03;58.66
7802;BME280;3945;48.952;9.506;2023-04-08T12:51:24;98394.28;;;12.04;59.06
7802;BME280;3945;48.952;9.506;2023-04-08T12:53:51;98402.41;;;12.09;60.35
7802;BME280;3945;48.952;9.506;2023-04-08T12:56:17;98395.94;;;12.22;60.77
7802;BME280;3945;48.952;9.506;2023-04-08T12:58:45;98394.41;;;12.26;59.52
7802;BME280;3945;48.952;9.506;2023-04-08T13:01:11;98396.41;;;12.19;58.13
7802;BME280;3945;48.952;9.506;2023-04-08T13:03:37;98394.09;;;11.94;57.19
7802;BME280;3945;48.952;9.506;2023-04-08T13:06:05;98395.31;;;11.75;56.82
7802;BME280;3945;48.952;9.506;2023-04-08T13:08:31;98392.09;;;11.50;57.27
7802;BME280;3945;48.952;9.506;2023-04-08T13:10:59;98380.44;;;11.27;57.51
7802;BME280;3945;48.952;9.506;2023-04-08T13:13:25;98385.66;;;11.22;58.37
7802;BME280;3945;48.952;9.506;2023-04-08T13:15:53;98396.19;;;11.29;60.75
7802;BME280;3945;48.952;9.506;2023-04-08T13:18:20;98387.84;;;11.37;60.02
7802;BME280;3945;48.952;9.506;2023-04-08T13:20:46;98386.78;;;11.50;61.07
7802;BME280;3945;48.952;9.506;2023-04-08T13:23:13;98385.84;;;11.56;60.90
7802;BME280;3945;48.952;9.506;2023-04-08T13:25:41;98379.22;;;11.58;59.81
7802;BME280;3945;48.952;9.506;2023-04-08T13:28:09;98378.97;;;11.60;59.95
7802;BME280;3945;48.952;9.506;2023-04-08T13:30:35;98378.06;;;11.66;59.12
7802;BME280;3945;48.952;9.506;2023-04-08T13:33:03;98379.78;;;11.72;60.21